Time;durP1;ratioP1;P1;durP2;ratioP2;P2;SDS_P1;SDS_P2;PMS_P1;PMS_P2;Temp;Humidity;BMP_temperature;BMP_pressure;BME280_temperature;BME280_humidity;BME280_pressure;Samples;Min_cycle;Max_cycle;Signal;HPM_P1;HPM_P2
2021/12/13 00:01:42;;;;;;;4.70;1.73;;;17.60;71.20;;;;;;5085737;28;20024;-84
2021/12/13 00:04:08;;;;;;;3.88;1.90;;;17.60;71.20;;;;;;5076638;28;20028;-83
2021/12/13 00:06:48;;;;;;;3.25;1.90;;;17.60;71.30;;;;;;5072688;28;20036;-82
2021/12/13 00:09:19;;;;;;;3.30;2.10;;;17.60;71.10;;;;;;5092079;28;20072;-83
2021/12/13 00:11:48;;;;;;;3.22;1.63;;;17.50;71.00;;;;;;5092765;28;20020;-82
2021/12/13 00:14:19;;;;;;;2.47;1.80;;;17.60;71.10;;;;;;5084284;28;20020;-83
2021/12/13 00:16:48;;;;;;;2.58;1.83;;;17.50;71.10;;;;;;5072293;28;20028;-82
2021/12/13 00:19:19;;;;;;;2.50;1.88;;;17.50;71.10;;;;;;5071895;28;20032;-83
2021/12/13 00:21:57;;;;;;;4.35;1.90;;;17.50;71.40;;;;;;5072261;28;20052;-83
2021/12/13 00:24:27;;;;;;;2.38;1.73;;;17.40;71.30;;;;;;5072087;28;20021;-83
2021/12/13 00:27:10;;;;;;;2.97;1.90;;;17.40;71.40;;;;;;5066277;28;20043;-84
2021/12/13 00:29:45;;;;;;;4.05;1.85;;;17.40;71.30;;;;;;5082789;28;20044;-83
2021/12/13 00:32:23;;;;;;;2.97;2.03;;;17.40;71.30;;;;;;5072284;28;20500;-84
2021/12/13 00:34:55;;;;;;;2.80;1.90;;;17.40;71.40;;;;;;5069726;28;20024;-84
2021/12/13 00:37:31;;;;;;;4.40;2.35;;;17.40;71.30;;;;;;5073702;28;20040;-84
2021/12/13 00:39:58;;;;;;;3.38;2.05;;;17.40;71.30;;;;;;5092151;28;20020;-85
2021/12/13 00:42:34;;;;;;;2.70;2.13;;;17.40;71.40;;;;;;5091565;28;20063;-83
2021/12/13 00:45:07;;;;;;;3.85;2.15;;;17.40;71.40;;;;;;5091929;28;20489;-82
2021/12/13 00:47:35;;;;;;;2.65;1.92;;;17.30;72.10;;;;;;5071177;28;20111;-83
2021/12/13 00:50:25;;;;;;;3.85;1.98;;;17.30;71.40;;;;;;5053679;28;20415;-82
2021/12/13 00:52:53;;;;;;;3.00;1.67;;;17.30;71.40;;;;;;5071542;28;20020;-83
2021/12/13 00:55:22;;;;;;;3.92;1.90;;;17.30;71.40;;;;;;5071310;28;20063;-83
2021/12/13 00:57:51;;;;;;;2.55;1.55;;;17.30;71.30;;;;;;5071470;28;20549;-82
2021/12/13 01:00:27;;;;;;;2.60;1.70;;;17.30;71.30;;;;;;5071128;28;20071;-82
2021/12/13 01:03:06;;;;;;;2.05;1.60;;;17.30;71.40;;;;;;5071446;28;20013;-83
2021/12/13 01:05:35;;;;;;;3.13;2.08;;;17.30;71.40;;;;;;5071208;28;20036;-84
2021/12/13 01:08:03;;;;;;;3.33;1.98;;;17.30;71.50;;;;;;5071326;28;20380;-84
2021/12/13 01:10:47;;;;;;;2.55;2.03;;;17.30;71.40;;;;;;5071233;28;20082;-83
2021/12/13 01:13:45;;;;;;;3.10;1.70;;;17.30;71.50;;;;;;5053110;28;20443;-84
2021/12/13 01:19:27;;;;;;;2.85;1.88;;;17.20;71.30;;;;;;5071382;28;20485;-83
2021/12/13 01:22:25;;;;;;;2.92;1.80;;;17.20;71.40;;;;;;5055165;28;20115;-83
2021/12/13 01:25:15;;;;;;;2.38;1.73;;;17.20;71.50;;;;;;5091382;28;20439;-83
2021/12/13 01:27:47;;;;;;;2.20;1.70;;;17.20;71.40;;;;;;5091055;28;20087;-83
2021/12/13 01:30:19;;;;;;;3.33;2.10;;;17.20;71.50;;;;;;5072854;28;20476;-83
2021/12/13 01:32:51;;;;;;;3.08;1.77;;;17.20;71.50;;;;;;5091433;28;20118;-84
2021/12/13 01:35:25;;;;;;;2.90;1.80;;;17.10;71.40;;;;;;5082072;28;20024;-84
2021/12/13 01:37:53;;;;;;;3.10;2.28;;;17.20;71.50;;;;;;5083963;28;20027;-84
2021/12/13 01:40:24;;;;;;;2.80;2.08;;;17.20;71.60;;;;;;5068454;28;20542;-84
2021/12/13 01:43:16;;;;;;;3.78;1.98;;;17.10;71.50;;;;;;5052807;28;20052;-84
2021/12/13 01:45:45;;;;;;;3.55;2.30;;;17.10;71.50;;;;;;5070923;28;20035;-83
2021/12/13 01:48:18;;;;;;;5.05;2.40;;;17.10;71.50;;;;;;5076481;28;20032;-83
2021/12/13 01:50:49;;;;;;;3.67;2.13;;;17.10;71.50;;;;;;5083621;28;20051;-83
2021/12/13 01:53:17;;;;;;;3.17;2.00;;;17.10;72.30;;;;;;5091025;28;20031;-84
2021/12/13 01:55:46;;;;;;;2.28;1.70;;;17.10;71.50;;;;;;5084667;28;20032;-84
2021/12/13 01:58:37;;;;;;;2.92;1.95;;;17.10;72.20;;;;;;5075100;28;20029;-84
2021/12/13 02:01:19;;;;;;;2.95;1.85;;;17.00;71.40;;;;;;5088036;28;20077;-84
2021/12/13 02:04:04;;;;;;;2.25;1.70;;;17.00;71.50;;;;;;5074988;28;20416;-84
2021/12/13 02:06:41;;;;;;;2.95;2.15;;;17.10;71.60;;;;;;5062367;28;20399;-83
2021/12/13 02:09:09;;;;;;;3.05;2.10;;;17.00;71.60;;;;;;5057213;28;20062;-85
2021/12/13 02:11:36;;;;;;;3.92;2.25;;;17.00;71.50;;;;;;5074525;28;20021;-83
2021/12/13 02:14:11;;;;;;;3.25;1.88;;;17.00;71.60;;;;;;5079186;28;20485;-83
2021/12/13 02:19:37;;;;;;;3.20;2.25;;;17.00;71.70;;;;;;5074653;28;20786;-83
2021/12/13 02:22:24;;;;;;;3.15;1.90;;;17.00;71.70;;;;;;5084736;28;20035;-84
2021/12/13 02:24:51;;;;;;;3.95;2.10;;;17.00;71.60;;;;;;5094406;28;20028;-83
2021/12/13 02:27:24;;;;;;;3.25;1.95;;;16.90;71.80;;;;;;5087620;28;20035;-84
2021/12/13 02:29:52;;;;;;;3.00;2.20;;;17.00;71.70;;;;;;5074680;28;20041;-84
2021/12/13 02:32:18;;;;;;;3.15;2.05;;;17.00;71.70;;;;;;5089028;28;20534;-83
2021/12/13 02:34:43;;;;;;;4.47;1.95;;;17.00;71.70;;;;;;5090884;28;20115;-83
2021/12/13 02:37:11;;;;;;;3.75;2.30;;;16.90;71.70;;;;;;5079214;28;20091;-84
2021/12/13 02:39:45;;;;;;;8.25;2.42;;;16.90;71.70;;;;;;5085994;28;20614;-83
2021/12/13 02:42:15;;;;;;;2.33;1.80;;;16.90;71.80;;;;;;5075686;28;20094;-83
2021/12/13 02:44:51;;;;;;;3.63;2.42;;;16.90;71.70;;;;;;5074474;28;20034;-83
2021/12/13 02:47:24;;;;;;;2.95;1.98;;;16.90;71.70;;;;;;5073833;28;20064;-82
2021/12/13 02:49:50;;;;;;;3.30;2.20;;;16.90;71.80;;;;;;5077617;28;20032;-83
2021/12/13 02:52:21;;;;;;;2.38;1.80;;;16.90;71.80;;;;;;5092656;28;20024;-83
2021/12/13 02:54:54;;;;;;;3.67;2.20;;;16.90;71.80;;;;;;5074103;28;20063;-82
2021/12/13 02:57:24;;;;;;;3.08;2.05;;;16.90;71.90;;;;;;5073473;28;20032;-82
2021/12/13 03:00:14;;;;;;;3.38;2.13;;;16.90;71.90;;;;;;5074964;28;20036;-82
2021/12/13 03:02:43;;;;;;;3.15;1.88;;;16.90;71.90;;;;;;5073981;28;20038;-82
2021/12/13 03:05:18;;;;;;;2.78;1.73;;;16.80;71.90;;;;;;5080131;28;20027;-82
2021/12/13 03:07:48;;;;;;;3.75;2.08;;;16.80;71.80;;;;;;5089475;28;20032;-82
2021/12/13 03:10:18;;;;;;;2.53;1.88;;;16.80;71.80;;;;;;5073603;28;20052;-82
2021/12/13 03:12:45;;;;;;;2.22;1.70;;;16.80;72.00;;;;;;5085600;28;20048;-82
2021/12/13 03:15:16;;;;;;;2.65;1.90;;;16.80;72.10;;;;;;5089710;28;20038;-82
2021/12/13 03:17:52;;;;;;;3.55;2.00;;;16.70;72.40;;;;;;5074122;28;20043;-82
2021/12/13 03:20:39;;;;;;;2.88;1.60;;;16.80;72.60;;;;;;5073687;28;20028;-82
2021/12/13 03:23:24;;;;;;;3.63;2.15;;;16.80;72.80;;;;;;5086450;28;20033;-82
2021/12/13 03:26:41;;;;;;;3.60;1.75;;;16.80;72.80;;;;;;5081204;28;20020;-82
2021/12/13 03:29:31;;;;;;;2.72;1.77;;;16.80;72.90;;;;;;4972129;28;20093;-82
2021/12/13 03:31:58;;;;;;;3.17;1.80;;;16.70;72.70;;;;;;4971843;28;20042;-82
2021/12/13 03:34:35;;;;;;;2.42;1.90;;;16.80;72.70;;;;;;5019729;28;20037;-82
2021/12/13 03:37:09;;;;;;;2.35;1.63;;;16.80;72.90;;;;;;5073281;28;20031;-82
2021/12/13 03:39:40;;;;;;;1.98;1.50;;;16.80;72.80;;;;;;5093228;28;20032;-81
2021/12/13 03:42:16;;;;;;;3.10;1.83;;;16.80;72.70;;;;;;5091725;28;20048;-81
2021/12/13 03:44:47;;;;;;;3.05;2.03;;;16.80;72.60;;;;;;5073275;28;20021;-82
2021/12/13 03:47:35;;;;;;;2.70;1.90;;;16.80;72.60;;;;;;5076850;28;20036;-82
2021/12/13 03:50:09;;;;;;;2.55;1.80;;;16.80;72.70;;;;;;5088116;28;20032;-82
2021/12/13 03:52:38;;;;;;;2.22;1.70;;;16.80;72.70;;;;;;5072469;28;20399;-81
2021/12/13 03:55:05;;;;;;;3.47;1.70;;;16.80;72.70;;;;;;5092739;28;20059;-81
2021/12/13 03:57:31;;;;;;;2.70;1.85;;;16.80;72.70;;;;;;5054396;28;20410;-82
2021/12/13 03:59:59;;;;;;;2.65;1.67;;;16.80;72.70;;;;;;5089402;28;20115;-82
2021/12/13 04:02:32;;;;;;;2.50;1.83;;;16.90;72.70;;;;;;5072539;28;20395;-82
2021/12/13 04:05:04;;;;;;;2.95;1.75;;;16.90;72.70;;;;;;5088221;28;20143;-80
2021/12/13 04:07:34;;;;;;;2.47;1.92;;;16.90;72.70;;;;;;5083772;28;20032;-82
2021/12/13 04:10:08;;;;;;;3.72;1.88;;;16.90;72.60;;;;;;5092817;28;20028;-82
2021/12/13 04:12:42;;;;;;;2.70;1.65;;;16.90;72.60;;;;;;5087390;28;20024;-81
2021/12/13 04:15:51;;;;;;;3.05;1.90;;;16.90;72.60;;;;;;5072784;28;20067;-82
2021/12/13 04:19:06;;;;;;;3.10;2.05;;;16.90;72.50;;;;;;5069264;28;20032;-83
2021/12/13 04:21:40;;;;;;;2.72;1.90;;;16.90;72.50;;;;;;5074661;28;20028;-84
2021/12/13 04:24:13;;;;;;;2.85;2.10;;;16.90;72.40;;;;;;5072815;28;20075;-83
2021/12/13 04:26:51;;;;;;;3.58;2.13;;;16.90;72.40;;;;;;5092455;28;20020;-82
2021/12/13 04:29:25;;;;;;;3.28;1.83;;;16.90;72.40;;;;;;5054853;28;20040;-82
2021/12/13 04:31:52;;;;;;;2.40;1.70;;;16.90;72.40;;;;;;5072203;28;20032;-83
2021/12/13 04:34:22;;;;;;;3.13;2.13;;;16.90;72.30;;;;;;5083880;28;20491;-84
2021/12/13 04:36:50;;;;;;;3.30;2.15;;;16.90;72.40;;;;;;5072871;28;20028;-82
2021/12/13 04:39:27;;;;;;;3.38;2.15;;;16.90;72.40;;;;;;5076554;28;20012;-82
2021/12/13 04:42:15;;;;;;;3.50;2.40;;;16.90;72.40;;;;;;5092271;28;20021;-82
2021/12/13 04:45:04;;;;;;;2.60;2.05;;;17.00;72.40;;;;;;5089607;28;20031;-81
2021/12/13 04:47:53;;;;;;;3.05;2.15;;;16.90;72.40;;;;;;5073086;28;20025;-82
2021/12/13 04:50:32;;;;;;;2.95;2.40;;;16.90;72.30;;;;;;5078250;28;20031;-82
2021/12/13 04:52:59;;;;;;;2.88;2.13;;;17.00;72.30;;;;;;5086646;28;20028;-82
2021/12/13 04:55:29;;;;;;;5.15;2.50;;;16.90;72.30;;;;;;5088179;28;20020;-81
2021/12/13 04:57:57;;;;;;;2.70;2.05;;;17.00;72.20;;;;;;5074267;28;20509;-82
2021/12/13 05:00:27;;;;;;;2.85;2.25;;;16.90;72.20;;;;;;5089336;28;20059;-83
2021/12/13 05:02:57;;;;;;;4.10;2.30;;;17.00;72.20;;;;;;5071455;28;20025;-82
2021/12/13 05:05:24;;;;;;;3.60;2.47;;;17.00;72.20;;;;;;5078233;28;20078;-81
2021/12/13 05:07:52;;;;;;;4.40;2.63;;;17.00;72.20;;;;;;5072742;28;20032;-82
2021/12/13 05:10:19;;;;;;;4.32;2.80;;;16.90;72.20;;;;;;5077549;28;20051;-82
2021/12/13 05:13:22;;;;;;;4.28;2.60;;;17.00;72.20;;;;;;5068192;28;20029;-83
2021/12/13 05:16:10;;;;;;;6.35;2.60;;;17.00;72.20;;;;;;5029944;28;20035;-81
2021/12/13 05:18:57;;;;;;;3.65;2.10;;;17.00;72.10;;;;;;5071175;28;20020;-82
2021/12/13 05:21:44;;;;;;;3.45;2.63;;;17.00;72.10;;;;;;5086362;28;20039;-82
2021/12/13 05:24:31;;;;;;;3.10;2.22;;;17.00;72.10;;;;;;5092019;28;20020;-81
2021/12/13 05:27:01;;;;;;;3.58;2.63;;;17.00;72.10;;;;;;5091012;28;20043;-81
2021/12/13 05:29:29;;;;;;;2.58;1.80;;;17.00;72.10;;;;;;5076168;28;20040;-80
2021/12/13 05:32:15;;;;;;;2.85;2.00;;;17.00;72.20;;;;;;5072016;28;20028;-81
2021/12/13 05:34:47;;;;;;;3.40;2.50;;;17.00;72.10;;;;;;5073623;28;20149;-81
2021/12/13 05:37:14;;;;;;;3.38;2.08;;;17.00;72.10;;;;;;5071276;28;20025;-80
2021/12/13 05:40:05;;;;;;;5.25;3.15;;;17.00;72.10;;;;;;5071361;28;20563;-81
2021/12/13 05:42:37;;;;;;;4.88;2.60;;;17.00;72.00;;;;;;5081730;28;20020;-82
2021/12/13 05:45:05;;;;;;;4.97;2.75;;;17.00;72.00;;;;;;5071043;28;20456;-81
2021/12/13 05:47:31;;;;;;;3.63;2.83;;;17.00;72.00;;;;;;5070691;28;20124;-82
2021/12/13 05:49:57;;;;;;;4.25;2.90;;;17.00;72.70;;;;;;5088824;28;20060;-81
2021/12/13 05:52:32;;;;;;;4.45;3.30;;;17.00;72.00;;;;;;5071723;28;20025;-83
2021/12/13 05:55:04;;;;;;;3.83;3.08;;;17.00;72.00;;;;;;5070378;28;20066;-81
2021/12/13 05:57:44;;;;;;;3.33;2.53;;;17.10;72.10;;;;;;5052632;28;20115;-81
2021/12/13 06:00:32;;;;;;;3.85;2.80;;;17.00;72.10;;;;;;5073228;28;20480;-84
2021/12/13 06:03:10;;;;;;;3.50;2.70;;;17.00;72.00;;;;;;5070050;28;20086;-81
2021/12/13 06:05:37;;;;;;;3.65;2.88;;;17.10;71.90;;;;;;5058903;28;20032;-82
2021/12/13 06:08:13;;;;;;;4.60;2.80;;;17.10;71.80;;;;;;5090164;28;20119;-82
2021/12/13 06:11:17;;;;;;;3.30;2.22;;;17.10;71.70;;;;;;5088513;28;20039;-80
2021/12/13 06:13:42;;;;;;;3.38;2.42;;;17.10;71.80;;;;;;4969466;28;20038;-79
2021/12/13 06:16:17;;;;;;;4.05;2.63;;;17.10;71.60;;;;;;5049803;28;20033;-80
2021/12/13 06:18:58;;;;;;;3.45;2.30;;;17.10;71.60;;;;;;5074016;28;20012;-81
2021/12/13 06:21:51;;;;;;;4.32;2.45;;;17.20;71.70;;;;;;5082602;28;20028;-79
2021/12/13 06:24:25;;;;;;;3.38;2.42;;;17.20;71.70;;;;;;5078065;28;20103;-80
2021/12/13 06:27:20;;;;;;;6.78;3.13;;;17.20;71.70;;;;;;5090815;28;20023;-80
2021/12/13 06:29:54;;;;;;;4.70;2.50;;;17.20;71.70;;;;;;5090192;28;20047;-81
2021/12/13 06:32:49;;;;;;;5.57;2.70;;;17.20;71.70;;;;;;5070765;28;20033;-79
2021/12/13 06:35:36;;;;;;;3.45;2.50;;;17.20;71.70;;;;;;5084893;28;20017;-80
2021/12/13 06:38:20;;;;;;;4.15;2.90;;;17.20;71.70;;;;;;5073083;28;20024;-81
2021/12/13 06:41:13;;;;;;;5.25;3.15;;;17.30;71.80;;;;;;5058501;28;20377;-83
2021/12/13 06:43:54;;;;;;;6.53;3.30;;;17.30;71.80;;;;;;5077528;28;20036;-83
2021/12/13 06:46:23;;;;;;;5.15;3.40;;;17.30;71.80;;;;;;5093805;28;20384;-82
2021/12/13 06:48:54;;;;;;;4.95;2.65;;;17.30;71.90;;;;;;5094275;28;20085;-83
2021/12/13 06:51:55;;;;;;;6.25;3.38;;;17.30;71.90;;;;;;5081702;28;20029;-85
2021/12/13 06:54:24;;;;;;;5.07;3.22;;;17.30;71.90;;;;;;5090704;28;20036;-84
2021/12/13 06:56:55;;;;;;;4.75;3.00;;;17.40;72.00;;;;;;5093805;28;20028;-83
2021/12/13 06:59:21;;;;;;;4.97;3.10;;;17.40;72.00;;;;;;5084993;28;20063;-83
2021/12/13 07:02:13;;;;;;;5.57;2.97;;;17.40;71.90;;;;;;5073673;28;20085;-84
2021/12/13 07:04:54;;;;;;;3.53;2.67;;;17.40;72.10;;;;;;5076105;28;20135;-82
2021/12/13 07:07:24;;;;;;;4.93;3.38;;;17.50;72.00;;;;;;5093425;28;20044;-83
2021/12/13 07:10:02;;;;;;;4.95;3.13;;;17.50;72.00;;;;;;5093972;28;20016;-85
2021/12/13 07:12:31;;;;;;;5.20;3.25;;;17.50;72.00;;;;;;5075155;28;20419;-90
2021/12/13 07:14:57;;;;;;;4.47;3.00;;;17.50;72.20;;;;;;5094064;28;20107;-83
2021/12/13 07:17:33;;;;;;;3.90;2.75;;;17.50;72.20;;;;;;5093830;28;20539;-85
2021/12/13 07:20:01;;;;;;;5.50;3.20;;;17.50;72.10;;;;;;5093272;28;20376;-87
2021/12/13 07:22:29;;;;;;;4.15;2.92;;;17.50;72.20;;;;;;5074222;28;20432;-85
2021/12/13 07:25:10;;;;;;;3.72;2.60;;;17.50;72.20;;;;;;5092748;28;20053;-86
2021/12/13 07:27:43;;;;;;;6.20;2.90;;;17.50;72.20;;;;;;5092244;28;20084;-84
2021/12/13 07:30:15;;;;;;;5.95;3.05;;;17.50;72.20;;;;;;5092197;28;20032;-84
2021/12/13 07:32:48;;;;;;;4.20;3.03;;;17.50;72.20;;;;;;5093876;28;20491;-84
2021/12/13 07:35:20;;;;;;;4.05;3.10;;;17.50;72.20;;;;;;5093176;28;20055;-84
2021/12/13 07:37:58;;;;;;;4.03;2.80;;;17.50;72.20;;;;;;5093529;28;20028;-86
2021/12/13 07:40:44;;;;;;;4.60;3.15;;;17.50;72.20;;;;;;5092561;28;20024;-84
2021/12/13 07:43:09;;;;;;;5.40;3.83;;;17.50;72.20;;;;;;5093767;28;20073;-83
2021/12/13 07:46:03;;;;;;;4.90;3.25;;;17.50;72.20;;;;;;5093047;28;20107;-85
2021/12/13 07:48:31;;;;;;;5.75;3.92;;;17.50;72.20;;;;;;5073118;28;20122;-87
2021/12/13 07:51:15;;;;;;;4.72;3.55;;;17.50;72.40;;;;;;5080417;28;20063;-86
2021/12/13 07:53:47;;;;;;;4.20;3.00;;;17.50;72.30;;;;;;5081598;28;20036;-85
2021/12/13 07:56:24;;;;;;;3.88;2.80;;;17.50;72.30;;;;;;5082949;28;20503;-85
2021/12/13 07:59:19;;;;;;;5.53;3.80;;;17.50;72.20;;;;;;5084824;28;20028;-84
2021/12/13 08:02:02;;;;;;;7.55;5.28;;;17.50;72.40;;;;;;5083543;28;20040;-84
2021/12/13 08:04:54;;;;;;;21.20;6.97;;;17.50;72.50;;;;;;5065306;28;20024;-82
2021/12/13 08:07:29;;;;;;;9.55;4.70;;;17.50;72.50;;;;;;5073957;28;20028;-84
2021/12/13 08:10:05;;;;;;;20.67;5.90;;;17.40;73.10;;;;;;5081718;28;20028;-83
2021/12/13 08:12:45;;;;;;;11.93;4.97;;;17.40;72.50;;;;;;5092108;28;20028;-83
2021/12/13 08:15:24;;;;;;;12.93;5.70;;;17.40;72.70;;;;;;5091567;28;20426;-88
2021/12/13 08:18:06;;;;;;;8.30;4.97;;;17.50;72.70;;;;;;5072375;28;20017;-86
2021/12/13 08:20:45;;;;;;;22.42;5.82;;;17.40;72.60;;;;;;5071707;28;20063;-87
2021/12/13 08:23:22;;;;;;;9.55;5.18;;;17.40;72.60;;;;;;5071561;28;20107;-87
2021/12/13 08:25:52;;;;;;;12.90;5.50;;;17.40;72.60;;;;;;5072112;28;20078;-87
2021/12/13 08:28:20;;;;;;;10.77;5.20;;;17.40;72.60;;;;;;5071712;28;20029;-87
2021/12/13 08:30:51;;;;;;;8.30;4.90;;;17.40;72.70;;;;;;5072229;28;20025;-87
2021/12/13 08:33:39;;;;;;;8.57;5.53;;;17.40;72.70;;;;;;5071792;28;20052;-88
2021/12/13 08:36:07;;;;;;;9.98;5.15;;;17.40;72.70;;;;;;5072089;28;20021;-88
2021/12/13 08:38:58;;;;;;;12.20;4.88;;;17.40;72.60;;;;;;5071633;28;20028;-87
2021/12/13 08:41:57;;;;;;;10.75;5.13;;;17.40;72.60;;;;;;5053993;28;20021;-87
2021/12/13 08:44:34;;;;;;;8.68;5.20;;;17.40;72.50;;;;;;5071518;28;20029;-87
2021/12/13 08:47:02;;;;;;;8.73;4.72;;;17.30;72.50;;;;;;5071767;28;20024;-87
2021/12/13 08:50:05;;;;;;;8.23;4.78;;;17.30;72.50;;;;;;5053271;28;20036;-88
2021/12/13 08:52:34;;;;;;;9.30;4.90;;;17.30;72.50;;;;;;5038156;28;20312;-88
2021/12/13 08:55:11;;;;;;;9.20;5.30;;;17.30;72.50;;;;;;5092076;28;20069;-89
2021/12/13 08:58:17;;;;;;;8.88;5.22;;;17.30;72.80;;;;;;5073420;28;20031;-93
2021/12/13 09:00:54;;;;;;;9.15;4.63;;;17.30;72.90;;;;;;5092332;28;20499;-85
2021/12/13 09:03:24;;;;;;;9.02;5.32;;;17.30;73.10;;;;;;5091886;28;20099;-90
2021/12/13 09:06:03;;;;;;;7.07;4.68;;;17.30;73.10;;;;;;5092215;28;20024;-90
2021/12/13 09:08:43;;;;;;;7.72;5.03;;;17.30;73.00;;;;;;5091853;28;20035;-90
2021/12/13 09:11:25;;;;;;;8.07;5.10;;;17.30;72.90;;;;;;5092384;28;20034;-90
2021/12/13 09:13:57;;;;;;;6.88;4.40;;;17.20;72.90;;;;;;5092170;28;20070;-93
2021/12/13 09:16:39;;;;;;;9.80;4.80;;;17.20;72.80;;;;;;5092395;28;20024;-93
2021/12/13 09:19:19;;;;;;;10.25;4.57;;;17.20;72.80;;;;;;5074515;28;20024;-92
2021/12/13 09:21:53;;;;;;;6.32;4.30;;;17.20;72.80;;;;;;5092428;28;20027;-94
2021/12/13 09:24:32;;;;;;;8.13;3.92;;;17.20;72.80;;;;;;5091914;28;20415;-93
2021/12/13 09:27:09;;;;;;;9.75;5.13;;;17.20;72.80;;;;;;5092339;28;20024;-93
2021/12/13 09:29:50;;;;;;;6.68;4.10;;;17.20;72.80;;;;;;5091821;28;20115;-91
2021/12/13 09:32:16;;;;;;;7.32;4.38;;;17.20;72.80;;;;;;5091912;28;20496;-92
2021/12/13 09:34:44;;;;;;;8.23;4.50;;;17.10;72.70;;;;;;5092021;28;20050;-91
2021/12/13 09:37:11;;;;;;;9.50;4.63;;;17.10;72.70;;;;;;5092164;28;20016;-92
2021/12/13 09:39:38;;;;;;;7.03;3.95;;;17.10;72.70;;;;;;5091517;28;20057;-92
2021/12/13 09:42:11;;;;;;;6.10;3.83;;;17.10;72.80;;;;;;5091775;28;20069;-89
2021/12/13 09:44:51;;;;;;;6.25;4.55;;;17.10;72.70;;;;;;5073417;28;20404;-92
2021/12/13 09:47:25;;;;;;;5.95;4.20;;;17.10;72.70;;;;;;5073716;28;20058;-92
2021/12/13 09:49:56;;;;;;;8.95;4.10;;;17.10;72.70;;;;;;5073955;28;20039;-92
2021/12/13 09:52:37;;;;;;;6.05;4.03;;;17.10;72.70;;;;;;5091653;28;20096;-93
2021/12/13 09:55:15;;;;;;;5.90;3.90;;;17.00;72.60;;;;;;5073905;28;20466;-92
2021/12/13 09:57:52;;;;;;;6.15;4.07;;;17.00;72.70;;;;;;5092028;28;20058;-93
2021/12/13 10:00:55;;;;;;;6.07;4.22;;;17.00;72.70;;;;;;5091719;28;20024;-92
2021/12/13 10:03:26;;;;;;;5.57;3.38;;;17.00;72.70;;;;;;5040146;28;20044;-91
2021/12/13 10:05:55;;;;;;;6.63;4.05;;;17.00;72.70;;;;;;5091113;28;20037;-91
2021/12/13 10:08:28;;;;;;;6.13;3.85;;;17.00;72.70;;;;;;5091153;28;20036;-91
2021/12/13 10:11:06;;;;;;;6.88;4.07;;;17.00;72.70;;;;;;5091600;28;20035;-91
2021/12/13 10:13:36;;;;;;;6.20;4.10;;;17.00;72.70;;;;;;5073397;28;20036;-93
2021/12/13 10:16:26;;;;;;;4.70;3.45;;;16.90;72.60;;;;;;5094496;28;20031;-93
2021/12/13 10:18:53;;;;;;;5.60;3.63;;;17.00;72.70;;;;;;5095537;28;20033;-92
2021/12/13 10:21:23;;;;;;;6.85;3.83;;;16.90;72.60;;;;;;5095392;28;20024;-90
2021/12/13 10:23:58;;;;;;;5.68;3.42;;;16.90;72.60;;;;;;5095428;28;20027;-91
2021/12/13 10:26:28;;;;;;;6.40;3.53;;;16.90;72.60;;;;;;5095099;28;20111;-93
2021/12/13 10:28:56;;;;;;;5.78;3.58;;;16.90;72.60;;;;;;5077192;28;20039;-92
2021/12/13 10:31:27;;;;;;;5.43;3.47;;;16.90;72.60;;;;;;5094939;28;20024;-89
2021/12/13 10:33:55;;;;;;;4.95;3.65;;;16.80;72.50;;;;;;5069304;28;20036;-92
2021/12/13 10:36:21;;;;;;;6.10;3.70;;;16.80;72.50;;;;;;5056900;28;20378;-92
2021/12/13 10:38:53;;;;;;;6.60;3.42;;;16.90;72.60;;;;;;5074970;28;20035;-92
2021/12/13 10:41:35;;;;;;;5.93;3.97;;;16.90;72.60;;;;;;5074568;28;20435;-92
2021/12/13 10:44:08;;;;;;;5.53;3.70;;;16.80;72.50;;;;;;5078803;28;20024;-92
2021/12/13 10:46:39;;;;;;;5.35;3.85;;;16.80;72.50;;;;;;5082728;28;20020;-92
2021/12/13 10:49:15;;;;;;;5.82;3.70;;;16.80;72.50;;;;;;5085743;28;20050;-92
2021/12/13 10:51:46;;;;;;;5.90;3.85;;;16.80;72.50;;;;;;5092147;28;20020;-92
2021/12/13 10:54:19;;;;;;;5.15;3.22;;;16.80;72.50;;;;;;5074862;28;20028;-93
2021/12/13 10:56:49;;;;;;;4.93;3.40;;;16.80;73.30;;;;;;5074886;28;20468;-94
2021/12/13 10:59:20;;;;;;;5.57;3.47;;;16.80;72.50;;;;;;5056476;28;20096;-93
2021/12/13 11:01:52;;;;;;;5.20;3.25;;;16.80;72.50;;;;;;5074555;28;20410;-91
2021/12/13 11:04:24;;;;;;;5.38;3.28;;;16.80;72.50;;;;;;5056207;28;20493;-90
2021/12/13 11:06:51;;;;;;;5.47;3.10;;;16.80;72.60;;;;;;5074554;28;20473;-92
2021/12/13 11:09:21;;;;;;;5.93;3.78;;;16.80;72.50;;;;;;5056133;28;20504;-92
2021/12/13 11:12:03;;;;;;;4.50;3.25;;;16.80;72.50;;;;;;5074328;28;20477;-93
2021/12/13 11:14:32;;;;;;;4.97;3.17;;;16.80;73.30;;;;;;5073900;28;20024;-90
2021/12/13 11:17:01;;;;;;;4.72;3.45;;;16.80;72.50;;;;;;5056383;28;20025;-92
2021/12/13 11:19:32;;;;;;;4.65;3.38;;;16.80;72.50;;;;;;5073705;28;20058;-92
2021/12/13 11:22:08;;;;;;;4.07;2.80;;;16.80;72.50;;;;;;5074435;28;20035;-93
2021/12/13 11:24:37;;;;;;;5.30;3.47;;;16.70;72.50;;;;;;5073955;28;20032;-93
2021/12/13 11:27:11;;;;;;;4.93;3.90;;;16.70;72.50;;;;;;5072878;28;20024;-92
2021/12/13 11:29:41;;;;;;;4.45;3.47;;;16.70;72.50;;;;;;5073763;28;20041;-92
2021/12/13 11:32:32;;;;;;;5.20;3.35;;;16.70;72.50;;;;;;5073910;28;20404;-92
2021/12/13 11:35:30;;;;;;;4.43;3.30;;;16.70;72.50;;;;;;5073740;28;20437;-92
2021/12/13 11:38:16;;;;;;;4.40;3.58;;;16.70;72.70;;;;;;5073486;28;20058;-90
2021/12/13 11:41:03;;;;;;;5.63;3.90;;;16.70;72.70;;;;;;5074057;28;20059;-87
2021/12/13 11:43:57;;;;;;;5.45;3.70;;;16.70;72.70;;;;;;5073601;28;20060;-92
2021/12/13 11:46:47;;;;;;;5.22;3.55;;;16.70;72.70;;;;;;5091598;28;20028;-91
2021/12/13 11:49:32;;;;;;;12.05;4.25;;;16.70;72.70;;;;;;5093472;28;20032;-89
2021/12/13 11:52:16;;;;;;;10.90;4.30;;;16.70;73.00;;;;;;5075817;28;20085;-92
2021/12/13 11:55:12;;;;;;;21.42;5.10;;;16.70;72.70;;;;;;5093846;28;20050;-92
2021/12/13 11:58:12;;;;;;;13.18;4.88;;;16.70;72.80;;;;;;5094191;28;20035;-91
2021/12/13 12:01:16;;;;;;;13.75;4.90;;;16.80;73.20;;;;;;5075376;28;20149;-91
2021/12/13 12:04:09;;;;;;;21.02;4.32;;;16.70;72.90;;;;;;5093926;28;20488;-90
2021/12/13 12:06:53;;;;;;;16.80;4.75;;;16.80;73.00;;;;;;5075636;28;20025;-93
2021/12/13 12:09:22;;;;;;;17.17;5.22;;;16.80;73.00;;;;;;5093490;28;20071;-91
2021/12/13 12:12:15;;;;;;;19.30;5.13;;;16.80;73.00;;;;;;5076113;28;20042;-94
2021/12/13 12:14:41;;;;;;;15.93;4.45;;;16.80;73.10;;;;;;5093710;28;20259;-89
2021/12/13 12:17:08;;;;;;;30.10;5.13;;;16.80;73.20;;;;;;5083998;28;20021;-94
2021/12/13 12:19:40;;;;;;;18.27;4.65;;;16.80;73.20;;;;;;5067125;28;20075;-93
2021/12/13 12:22:15;;;;;;;21.33;4.60;;;16.70;73.00;;;;;;5083827;28;20023;-91
2021/12/13 12:24:41;;;;;;;;;;;16.80;73.00;;;;;;5069691;28;20024;-94
2021/12/13 12:27:11;;;;;;;19.67;4.83;;;16.80;73.00;;;;;;5083732;28;20006;-91
2021/12/13 12:29:44;;;;;;;10.10;4.40;;;16.80;72.90;;;;;;5081963;28;20291;-94
2021/12/13 12:32:44;;;;;;;11.88;4.57;;;16.80;72.90;;;;;;5079809;28;20024;-93
2021/12/13 12:35:17;;;;;;;15.55;4.38;;;16.80;73.10;;;;;;5022455;28;20097;-92
2021/12/13 12:38:02;;;;;;;15.20;6.68;;;16.80;73.10;;;;;;5064038;28;20062;-90
2021/12/13 12:40:35;;;;;;;8.20;4.20;;;16.80;73.60;;;;;;5083434;28;20008;-94
2021/12/13 12:43:08;;;;;;;14.55;4.38;;;16.90;73.70;;;;;;5082719;28;20028;-94
2021/12/13 12:45:54;;;;;;;12.48;4.18;;;16.90;73.60;;;;;;5081010;28;20097;-93
2021/12/13 12:48:39;;;;;;;11.15;5.00;;;16.80;73.60;;;;;;5092270;28;20024;-91
2021/12/13 12:51:17;;;;;;;8.88;4.20;;;16.90;73.60;;;;;;5081416;28;20119;-92
2021/12/13 12:54:05;;;;;;;14.50;5.35;;;16.90;73.80;;;;;;5081418;28;20427;-85
2021/12/13 12:56:30;;;;;;;10.35;3.90;;;16.90;73.70;;;;;;5080985;28;20021;-90
2021/12/13 12:59:24;;;;;;;9.77;4.22;;;16.90;74.50;;;;;;5060818;28;20103;-91
2021/12/13 13:01:58;;;;;;;13.48;4.68;;;16.90;73.70;;;;;;5071745;28;20040;-87
2021/12/13 13:04:39;;;;;;;7.72;4.35;;;16.90;73.70;;;;;;5071317;28;20016;-87
2021/12/13 13:07:29;;;;;;;7.95;4.32;;;16.90;73.60;;;;;;5071528;28;20027;-89
2021/12/13 13:10:03;;;;;;;9.52;4.63;;;16.90;73.50;;;;;;5071565;28;20161;-89
2021/12/13 13:12:29;;;;;;;9.65;4.15;;;16.90;73.60;;;;;;5058069;28;20036;-87
2021/12/13 13:15:13;;;;;;;6.32;3.70;;;16.90;73.40;;;;;;5069614;28;20017;-87
2021/12/13 13:17:47;;;;;;;7.03;3.80;;;16.90;73.50;;;;;;5069681;28;20031;-86
2021/12/13 13:20:18;;;;;;;8.73;4.30;;;16.90;73.60;;;;;;5051676;28;20115;-86
2021/12/13 13:22:46;;;;;;;8.15;4.10;;;16.90;73.50;;;;;;5070362;28;20020;-85
2021/12/13 13:25:29;;;;;;;6.63;3.95;;;16.90;73.60;;;;;;5070570;28;20052;-87
2021/12/13 13:27:57;;;;;;;7.60;4.25;;;16.90;73.40;;;;;;5070354;28;20020;-86
2021/12/13 13:30:48;;;;;;;8.23;4.25;;;16.90;73.40;;;;;;5070096;28;20029;-86
2021/12/13 13:33:14;;;;;;;7.32;4.25;;;17.00;73.40;;;;;;5047050;28;20037;-85
2021/12/13 13:35:41;;;;;;;6.35;3.47;;;16.90;73.30;;;;;;5053300;28;20032;-86
2021/12/13 13:38:15;;;;;;;8.65;4.07;;;16.90;73.30;;;;;;5071099;28;20077;-85
2021/12/13 13:40:42;;;;;;;6.72;3.72;;;17.00;73.40;;;;;;5079742;28;20043;-84